sensor_id;sensor_type;location;lat;lon;timestamp;temperature;humidity
20376;DHT22;10347;51.828;6.466;2023-05-10T00:00:07;15.90;99.90
20376;DHT22;10347;51.828;6.466;2023-05-10T00:02:34;15.90;99.90
20376;DHT22;10347;51.828;6.466;2023-05-10T00:05:00;15.90;99.90
20376;DHT22;10347;51.828;6.466;2023-05-10T00:07:25;15.90;99.90
20376;DHT22;10347;51.828;6.466;2023-05-10T00:09:51;15.80;99.90
20376;DHT22;10347;51.828;6.466;2023-05-10T00:12:17;15.80;99.90
20376;DHT22;10347;51.828;6.466;2023-05-10T00:14:42;15.90;99.90
20376;DHT22;10347;51.828;6.466;2023-05-10T00:17:08;15.90;99.90
20376;DHT22;10347;51.828;6.466;2023-05-10T00:19:33;15.90;99.90
20376;DHT22;10347;51.828;6.466;2023-05-10T00:21:59;15.90;99.90
20376;DHT22;10347;51.828;6.466;2023-05-10T00:24:24;15.80;99.90
20376;DHT22;10347;51.828;6.466;2023-05-10T00:26:50;15.80;99.90
20376;DHT22;10347;51.828;6.466;2023-05-10T00:29:15;15.80;99.90
20376;DHT22;10347;51.828;6.466;2023-05-10T00:31:41;15.80;99.90
20376;DHT22;10347;51.828;6.466;2023-05-10T00:34:07;15.80;99.90
20376;DHT22;10347;51.828;6.466;2023-05-10T00:36:32;15.80;99.90
20376;DHT22;10347;51.828;6.466;2023-05-10T00:38:58;15.90;99.90
20376;DHT22;10347;51.828;6.466;2023-05-10T00:41:23;15.80;99.90
20376;DHT22;10347;51.828;6.466;2023-05-10T00:43:49;15.90;99.90
20376;DHT22;10347;51.828;6.466;2023-05-10T00:46:15;15.80;99.90
20376;DHT22;10347;51.828;6.466;2023-05-10T00:48:41;15.90;99.90
20376;DHT22;10347;51.828;6.466;2023-05-10T00:51:07;15.90;99.90
20376;DHT22;10347;51.828;6.466;2023-05-10T00:53:34;15.90;99.90
20376;DHT22;10347;51.828;6.466;2023-05-10T00:56:00;15.80;99.90
20376;DHT22;10347;51.828;6.466;2023-05-10T00:58:27;15.90;99.90
20376;DHT22;10347;51.828;6.466;2023-05-10T01:00:55;15.90;99.90
20376;DHT22;10347;51.828;6.466;2023-05-10T01:03:21;15.90;99.90
20376;DHT22;10347;51.828;6.466;2023-05-10T01:05:47;15.90;99.90
20376;DHT22;10347;51.828;6.466;2023-05-10T01:08:12;15.90;99.90
20376;DHT22;10347;51.828;6.466;2023-05-10T01:10:38;15.90;99.90
20376;DHT22;10347;51.828;6.466;2023-05-10T01:13:04;15.90;99.90
20376;DHT22;10347;51.828;6.466;2023-05-10T01:15:30;15.90;99.90
20376;DHT22;10347;51.828;6.466;2023-05-10T01:17:56;15.90;99.90
20376;DHT22;10347;51.828;6.466;2023-05-10T01:20:22;15.90;99.90
20376;DHT22;10347;51.828;6.466;2023-05-10T01:28:52;15.90;99.90
20376;DHT22;10347;51.828;6.466;2023-05-10T01:31:58;15.90;99.90
20376;DHT22;10347;51.828;6.466;2023-05-10T01:34:39;15.90;99.90
20376;DHT22;10347;51.828;6.466;2023-05-10T01:37:19;15.90;99.90
20376;DHT22;10347;51.828;6.466;2023-05-10T01:39:46;15.90;99.90
20376;DHT22;10347;51.828;6.466;2023-05-10T01:42:25;15.90;99.90
20376;DHT22;10347;51.828;6.466;2023-05-10T01:45:02;15.90;99.90
20376;DHT22;10347;51.828;6.466;2023-05-10T01:47:41;15.90;99.90
20376;DHT22;10347;51.828;6.466;2023-05-10T01:50:14;15.90;99.90
20376;DHT22;10347;51.828;6.466;2023-05-10T01:52:50;15.90;99.90
20376;DHT22;10347;51.828;6.466;2023-05-10T01:55:20;15.90;99.90
20376;DHT22;10347;51.828;6.466;2023-05-10T01:57:48;15.90;99.90
20376;DHT22;10347;51.828;6.466;2023-05-10T02:00:16;15.90;99.90
20376;DHT22;10347;51.828;6.466;2023-05-10T02:02:46;15.90;99.90
20376;DHT22;10347;51.828;6.466;2023-05-10T02:05:14;15.90;99.90
20376;DHT22;10347;51.828;6.466;2023-05-10T02:07:40;15.90;99.90
20376;DHT22;10347;51.828;6.466;2023-05-10T02:10:07;15.90;99.90
20376;DHT22;10347;51.828;6.466;2023-05-10T02:12:42;15.90;99.90
20376;DHT22;10347;51.828;6.466;2023-05-10T02:15:09;15.90;99.90
20376;DHT22;10347;51.828;6.466;2023-05-10T02:17:37;15.90;99.90
20376;DHT22;10347;51.828;6.466;2023-05-10T02:20:05;15.90;99.90
20376;DHT22;10347;51.828;6.466;2023-05-10T02:22:32;15.90;99.90
20376;DHT22;10347;51.828;6.466;2023-05-10T02:24:59;15.80;99.90
20376;DHT22;10347;51.828;6.466;2023-05-10T02:27:27;15.90;99.90
20376;DHT22;10347;51.828;6.466;2023-05-10T02:29:53;15.90;99.90
20376;DHT22;10347;51.828;6.466;2023-05-10T02:32:21;15.90;99.90
20376;DHT22;10347;51.828;6.466;2023-05-10T02:34:48;15.90;99.90
20376;DHT22;10347;51.828;6.466;2023-05-10T02:37:19;15.90;99.90
20376;DHT22;10347;51.828;6.466;2023-05-10T02:39:49;15.90;99.90
20376;DHT22;10347;51.828;6.466;2023-05-10T02:42:17;15.90;99.90
20376;DHT22;10347;51.828;6.466;2023-05-10T02:44:47;15.90;99.90
20376;DHT22;10347;51.828;6.466;2023-05-10T02:47:13;15.80;99.90
20376;DHT22;10347;51.828;6.466;2023-05-10T02:49:39;15.80;99.90
20376;DHT22;10347;51.828;6.466;2023-05-10T02:52:05;15.90;99.90
20376;DHT22;10347;51.828;6.466;2023-05-10T02:54:43;15.90;99.90
20376;DHT22;10347;51.828;6.466;2023-05-10T02:57:14;15.90;99.90
20376;DHT22;10347;51.828;6.466;2023-05-10T02:59:40;15.90;99.90
20376;DHT22;10347;51.828;6.466;2023-05-10T03:02:08;15.80;99.90
20376;DHT22;10347;51.828;6.466;2023-05-10T03:04:34;15.80;99.90
20376;DHT22;10347;51.828;6.466;2023-05-10T03:07:00;15.80;99.90
20376;DHT22;10347;51.828;6.466;2023-05-10T03:09:26;15.80;99.90
20376;DHT22;10347;51.828;6.466;2023-05-10T03:12:14;15.80;99.90
20376;DHT22;10347;51.828;6.466;2023-05-10T03:14:53;15.80;99.90
20376;DHT22;10347;51.828;6.466;2023-05-10T03:17:52;15.80;99.90
20376;DHT22;10347;51.828;6.466;2023-05-10T03:20:29;15.80;99.90
20376;DHT22;10347;51.828;6.466;2023-05-10T03:23:04;15.80;99.90
20376;DHT22;10347;51.828;6.466;2023-05-10T03:25:33;15.80;99.90
20376;DHT22;10347;51.828;6.466;2023-05-10T03:28:01;15.80;99.90
20376;DHT22;10347;51.828;6.466;2023-05-10T03:30:28;15.80;99.90
20376;DHT22;10347;51.828;6.466;2023-05-10T03:32:54;15.80;99.90
20376;DHT22;10347;51.828;6.466;2023-05-10T03:35:19;15.80;99.90
20376;DHT22;10347;51.828;6.466;2023-05-10T03:37:45;15.90;99.90
20376;DHT22;10347;51.828;6.466;2023-05-10T03:40:11;15.80;99.90
20376;DHT22;10347;51.828;6.466;2023-05-10T03:42:36;15.80;99.90
20376;DHT22;10347;51.828;6.466;2023-05-10T03:45:02;15.80;99.90
20376;DHT22;10347;51.828;6.466;2023-05-10T03:47:28;15.80;99.90
20376;DHT22;10347;51.828;6.466;2023-05-10T03:49:54;15.80;99.90
20376;DHT22;10347;51.828;6.466;2023-05-10T03:52:20;15.80;99.90
20376;DHT22;10347;51.828;6.466;2023-05-10T03:54:46;15.80;99.90
20376;DHT22;10347;51.828;6.466;2023-05-10T03:57:11;15.80;99.90
20376;DHT22;10347;51.828;6.466;2023-05-10T03:59:37;15.80;99.90
20376;DHT22;10347;51.828;6.466;2023-05-10T04:02:02;15.80;99.90
20376;DHT22;10347;51.828;6.466;2023-05-10T04:04:28;15.80;99.90
20376;DHT22;10347;51.828;6.466;2023-05-10T04:06:53;15.70;99.90
20376;DHT22;10347;51.828;6.466;2023-05-10T04:09:20;15.70;99.90
20376;DHT22;10347;51.828;6.466;2023-05-10T04:11:45;15.70;99.90
20376;DHT22;10347;51.828;6.466;2023-05-10T04:14:11;15.60;99.90
20376;DHT22;10347;51.828;6.466;2023-05-10T04:16:36;15.60;99.90
20376;DHT22;10347;51.828;6.466;2023-05-10T04:19:02;15.60;99.90
20376;DHT22;10347;51.828;6.466;2023-05-10T04:21:28;15.60;99.90
20376;DHT22;10347;51.828;6.466;2023-05-10T04:23:53;15.60;99.90
20376;DHT22;10347;51.828;6.466;2023-05-10T04:26:19;15.50;99.90
20376;DHT22;10347;51.828;6.466;2023-05-10T04:28:45;15.50;99.90
20376;DHT22;10347;51.828;6.466;2023-05-10T04:31:11;15.50;99.90
20376;DHT22;10347;51.828;6.466;2023-05-10T04:33:36;15.50;99.90
20376;DHT22;10347;51.828;6.466;2023-05-10T04:36:03;15.50;99.90
20376;DHT22;10347;51.828;6.466;2023-05-10T04:38:29;15.50;99.90
20376;DHT22;10347;51.828;6.466;2023-05-10T04:40:55;15.50;99.90
20376;DHT22;10347;51.828;6.466;2023-05-10T04:43:28;15.40;99.90
20376;DHT22;10347;51.828;6.466;2023-05-10T04:45:56;15.40;99.90
20376;DHT22;10347;51.828;6.466;2023-05-10T04:48:22;15.50;99.90
20376;DHT22;10347;51.828;6.466;2023-05-10T04:50:47;15.50;99.90
20376;DHT22;10347;51.828;6.466;2023-05-10T04:53:13;15.40;99.90
20376;DHT22;10347;51.828;6.466;2023-05-10T04:55:38;15.40;99.90
20376;DHT22;10347;51.828;6.466;2023-05-10T04:58:04;15.50;99.90
20376;DHT22;10347;51.828;6.466;2023-05-10T05:00:29;15.40;99.90
20376;DHT22;10347;51.828;6.466;2023-05-10T05:02:55;15.50;99.90
20376;DHT22;10347;51.828;6.466;2023-05-10T05:05:20;15.50;99.90
20376;DHT22;10347;51.828;6.466;2023-05-10T05:07:46;15.50;99.90
20376;DHT22;10347;51.828;6.466;2023-05-10T05:10:12;15.50;99.90
20376;DHT22;10347;51.828;6.466;2023-05-10T05:12:37;15.50;99.90
20376;DHT22;10347;51.828;6.466;2023-05-10T05:15:03;15.50;99.90
20376;DHT22;10347;51.828;6.466;2023-05-10T05:17:32;15.50;99.90
20376;DHT22;10347;51.828;6.466;2023-05-10T05:19:57;15.50;99.90
20376;DHT22;10347;51.828;6.466;2023-05-10T05:22:23;15.50;99.90
20376;DHT22;10347;51.828;6.466;2023-05-10T05:24:55;15.50;99.90
20376;DHT22;10347;51.828;6.466;2023-05-10T05:27:21;15.50;99.90
20376;DHT22;10347;51.828;6.466;2023-05-10T05:29:53;15.50;99.90
20376;DHT22;10347;51.828;6.466;2023-05-10T05:32:19;15.50;99.90
20376;DHT22;10347;51.828;6.466;2023-05-10T05:34:45;15.60;99.90
20376;DHT22;10347;51.828;6.466;2023-05-10T05:37:15;15.60;99.90
20376;DHT22;10347;51.828;6.466;2023-05-10T05:39:41;15.60;99.90
20376;DHT22;10347;51.828;6.466;2023-05-10T05:42:08;15.50;99.90
20376;DHT22;10347;51.828;6.466;2023-05-10T05:44:34;15.50;99.90
20376;DHT22;10347;51.828;6.466;2023-05-10T05:46:59;15.60;99.90
20376;DHT22;10347;51.828;6.466;2023-05-10T05:49:25;15.50;99.90
20376;DHT22;10347;51.828;6.466;2023-05-10T05:51:50;15.50;99.90
20376;DHT22;10347;51.828;6.466;2023-05-10T05:54:16;15.60;99.90
20376;DHT22;10347;51.828;6.466;2023-05-10T05:56:42;15.60;99.90
20376;DHT22;10347;51.828;6.466;2023-05-10T05:59:07;15.60;99.90
20376;DHT22;10347;51.828;6.466;2023-05-10T06:01:33;15.60;99.90
20376;DHT22;10347;51.828;6.466;2023-05-10T06:03:59;15.50;99.90
20376;DHT22;10347;51.828;6.466;2023-05-10T06:06:24;15.60;99.90
20376;DHT22;10347;51.828;6.466;2023-05-10T06:08:50;15.60;99.90
20376;DHT22;10347;51.828;6.466;2023-05-10T06:11:15;15.60;99.90
20376;DHT22;10347;51.828;6.466;2023-05-10T06:13:41;15.70;99.90
20376;DHT22;10347;51.828;6.466;2023-05-10T06:16:07;15.60;99.90
20376;DHT22;10347;51.828;6.466;2023-05-10T06:18:33;15.70;99.90
20376;DHT22;10347;51.828;6.466;2023-05-10T06:20:59;15.70;99.90
20376;DHT22;10347;51.828;6.466;2023-05-10T06:23:25;15.70;99.90
20376;DHT22;10347;51.828;6.466;2023-05-10T06:25:51;15.70;99.90
20376;DHT22;10347;51.828;6.466;2023-05-10T06:28:17;15.70;99.90
20376;DHT22;10347;51.828;6.466;2023-05-10T06:30:42;15.80;99.90
20376;DHT22;10347;51.828;6.466;2023-05-10T06:33:08;15.80;99.90
20376;DHT22;10347;51.828;6.466;2023-05-10T06:35:34;15.80;99.90
20376;DHT22;10347;51.828;6.466;2023-05-10T06:37:59;15.80;99.90
20376;DHT22;10347;51.828;6.466;2023-05-10T06:40:25;15.80;99.90
20376;DHT22;10347;51.828;6.466;2023-05-10T06:42:51;15.70;99.90
20376;DHT22;10347;51.828;6.466;2023-05-10T06:45:17;15.80;99.90
20376;DHT22;10347;51.828;6.466;2023-05-10T06:47:43;15.80;99.90
20376;DHT22;10347;51.828;6.466;2023-05-10T06:50:09;15.80;99.90
20376;DHT22;10347;51.828;6.466;2023-05-10T06:52:36;15.80;99.90
20376;DHT22;10347;51.828;6.466;2023-05-10T06:55:03;15.80;99.90
20376;DHT22;10347;51.828;6.466;2023-05-10T06:57:29;15.80;99.90
20376;DHT22;10347;51.828;6.466;2023-05-10T06:59:54;15.80;99.90
20376;DHT22;10347;51.828;6.466;2023-05-10T07:02:21;15.90;99.90
20376;DHT22;10347;51.828;6.466;2023-05-10T07:04:48;15.90;99.90
20376;DHT22;10347;51.828;6.466;2023-05-10T07:07:14;15.90;99.90
20376;DHT22;10347;51.828;6.466;2023-05-10T07:09:40;16.00;99.90
20376;DHT22;10347;51.828;6.466;2023-05-10T07:12:05;16.00;99.90
20376;DHT22;10347;51.828;6.466;2023-05-10T07:14:31;16.00;99.90
20376;DHT22;10347;51.828;6.466;2023-05-10T07:16:56;16.00;99.90
20376;DHT22;10347;51.828;6.466;2023-05-10T07:19:22;16.00;99.90
20376;DHT22;10347;51.828;6.466;2023-05-10T07:21:47;16.00;99.90
20376;DHT22;10347;51.828;6.466;2023-05-10T07:24:13;16.10;99.90
20376;DHT22;10347;51.828;6.466;2023-05-10T07:26:38;16.10;99.90
20376;DHT22;10347;51.828;6.466;2023-05-10T07:29:04;16.10;99.90
20376;DHT22;10347;51.828;6.466;2023-05-10T07:31:30;16.10;99.90
20376;DHT22;10347;51.828;6.466;2023-05-10T07:33:56;16.20;99.90
20376;DHT22;10347;51.828;6.466;2023-05-10T07:36:21;16.20;99.90
20376;DHT22;10347;51.828;6.466;2023-05-10T07:38:47;16.20;99.90
20376;DHT22;10347;51.828;6.466;2023-05-10T07:41:12;16.20;99.90
20376;DHT22;10347;51.828;6.466;2023-05-10T07:43:38;16.20;99.90
20376;DHT22;10347;51.828;6.466;2023-05-10T07:46:04;16.20;99.90
20376;DHT22;10347;51.828;6.466;2023-05-10T07:48:29;16.20;99.90
20376;DHT22;10347;51.828;6.466;2023-05-10T07:50:55;16.20;99.90
20376;DHT22;10347;51.828;6.466;2023-05-10T07:53:20;16.30;99.90
20376;DHT22;10347;51.828;6.466;2023-05-10T07:55:55;16.30;99.90
20376;DHT22;10347;51.828;6.466;2023-05-10T07:58:23;16.30;99.90
20376;DHT22;10347;51.828;6.466;2023-05-10T08:00:48;16.40;99.90
20376;DHT22;10347;51.828;6.466;2023-05-10T08:03:14;16.40;99.90
20376;DHT22;10347;51.828;6.466;2023-05-10T08:05:40;16.50;99.90
20376;DHT22;10347;51.828;6.466;2023-05-10T08:08:06;16.50;99.90
20376;DHT22;10347;51.828;6.466;2023-05-10T08:10:32;16.50;99.90
20376;DHT22;10347;51.828;6.466;2023-05-10T08:12:57;16.50;99.90
20376;DHT22;10347;51.828;6.466;2023-05-10T08:15:24;16.50;99.90
20376;DHT22;10347;51.828;6.466;2023-05-10T08:17:51;16.50;99.90
20376;DHT22;10347;51.828;6.466;2023-05-10T08:20:16;16.50;99.90
20376;DHT22;10347;51.828;6.466;2023-05-10T08:22:47;16.40;99.90
20376;DHT22;10347;51.828;6.466;2023-05-10T08:25:12;16.40;99.90
20376;DHT22;10347;51.828;6.466;2023-05-10T08:27:38;16.40;99.90
20376;DHT22;10347;51.828;6.466;2023-05-10T08:30:04;16.40;99.90
20376;DHT22;10347;51.828;6.466;2023-05-10T08:32:29;16.40;99.90
20376;DHT22;10347;51.828;6.466;2023-05-10T08:34:55;16.30;99.90
20376;DHT22;10347;51.828;6.466;2023-05-10T08:37:23;16.30;99.90
20376;DHT22;10347;51.828;6.466;2023-05-10T08:39:48;16.30;99.90
20376;DHT22;10347;51.828;6.466;2023-05-10T08:42:16;16.30;99.90
20376;DHT22;10347;51.828;6.466;2023-05-10T08:44:45;16.30;99.90
20376;DHT22;10347;51.828;6.466;2023-05-10T08:47:11;16.30;99.90
20376;DHT22;10347;51.828;6.466;2023-05-10T08:49:38;16.30;99.90
20376;DHT22;10347;51.828;6.466;2023-05-10T08:52:05;16.30;99.90
20376;DHT22;10347;51.828;6.466;2023-05-10T08:54:32;16.40;99.90
20376;DHT22;10347;51.828;6.466;2023-05-10T08:56:58;16.40;99.90
20376;DHT22;10347;51.828;6.466;2023-05-10T08:59:24;16.30;99.90
20376;DHT22;10347;51.828;6.466;2023-05-10T09:01:50;16.30;99.90
20376;DHT22;10347;51.828;6.466;2023-05-10T09:04:16;16.40;99.90
20376;DHT22;10347;51.828;6.466;2023-05-10T09:06:42;16.40;99.90
20376;DHT22;10347;51.828;6.466;2023-05-10T09:09:08;16.40;99.90
20376;DHT22;10347;51.828;6.466;2023-05-10T09:11:33;16.40;99.90
20376;DHT22;10347;51.828;6.466;2023-05-10T09:14:00;16.40;99.90
20376;DHT22;10347;51.828;6.466;2023-05-10T09:16:26;16.40;99.90
20376;DHT22;10347;51.828;6.466;2023-05-10T09:18:51;16.50;99.90
20376;DHT22;10347;51.828;6.466;2023-05-10T09:21:19;16.50;99.90
20376;DHT22;10347;51.828;6.466;2023-05-10T09:23:45;16.50;99.90
20376;DHT22;10347;51.828;6.466;2023-05-10T09:26:12;16.50;99.90
20376;DHT22;10347;51.828;6.466;2023-05-10T09:28:55;16.60;99.90
20376;DHT22;10347;51.828;6.466;2023-05-10T09:31:21;16.60;99.90
20376;DHT22;10347;51.828;6.466;2023-05-10T09:33:48;16.50;99.90
20376;DHT22;10347;51.828;6.466;2023-05-10T09:36:14;16.50;99.90
20376;DHT22;10347;51.828;6.466;2023-05-10T09:38:51;16.40;99.90
20376;DHT22;10347;51.828;6.466;2023-05-10T09:41:22;16.40;99.90
20376;DHT22;10347;51.828;6.466;2023-05-10T09:43:48;16.50;99.90
20376;DHT22;10347;51.828;6.466;2023-05-10T09:46:15;16.40;99.90
20376;DHT22;10347;51.828;6.466;2023-05-10T09:48:45;16.50;99.90
20376;DHT22;10347;51.828;6.466;2023-05-10T09:51:19;16.50;99.90
20376;DHT22;10347;51.828;6.466;2023-05-10T09:53:45;16.60;99.90
20376;DHT22;10347;51.828;6.466;2023-05-10T09:56:11;16.60;99.90
20376;DHT22;10347;51.828;6.466;2023-05-10T09:58:37;16.60;99.90
20376;DHT22;10347;51.828;6.466;2023-05-10T10:01:11;16.60;99.90
20376;DHT22;10347;51.828;6.466;2023-05-10T10:03:42;16.60;99.90
20376;DHT22;10347;51.828;6.466;2023-05-10T10:06:08;16.60;99.90
20376;DHT22;10347;51.828;6.466;2023-05-10T10:08:34;16.60;99.90
20376;DHT22;10347;51.828;6.466;2023-05-10T10:11:00;16.60;99.90
20376;DHT22;10347;51.828;6.466;2023-05-10T10:13:26;16.60;99.90
20376;DHT22;10347;51.828;6.466;2023-05-10T10:15:53;16.60;99.90
20376;DHT22;10347;51.828;6.466;2023-05-10T10:18:20;16.60;99.90
20376;DHT22;10347;51.828;6.466;2023-05-10T10:20:52;16.60;99.90
20376;DHT22;10347;51.828;6.466;2023-05-10T10:23:19;16.70;99.90
20376;DHT22;10347;51.828;6.466;2023-05-10T10:25:45;16.70;99.90
20376;DHT22;10347;51.828;6.466;2023-05-10T10:28:46;16.70;99.90
20376;DHT22;10347;51.828;6.466;2023-05-10T10:36:24;16.70;99.90
20376;DHT22;10347;51.828;6.466;2023-05-10T10:38:58;16.80;99.90
20376;DHT22;10347;51.828;6.466;2023-05-10T10:41:59;16.70;99.90
20376;DHT22;10347;51.828;6.466;2023-05-10T11:00:29;16.90;99.90
20376;DHT22;10347;51.828;6.466;2023-05-10T11:05:46;16.90;99.90
20376;DHT22;10347;51.828;6.466;2023-05-10T11:11:13;16.90;99.90
20376;DHT22;10347;51.828;6.466;2023-05-10T11:16:22;17.00;99.90
20376;DHT22;10347;51.828;6.466;2023-05-10T11:19:07;17.00;99.90
20376;DHT22;10347;51.828;6.466;2023-05-10T11:21:34;17.00;99.90
20376;DHT22;10347;51.828;6.466;2023-05-10T11:24:14;16.90;99.90
20376;DHT22;10347;51.828;6.466;2023-05-10T11:26:40;16.90;99.90
20376;DHT22;10347;51.828;6.466;2023-05-10T11:29:06;16.90;99.90
20376;DHT22;10347;51.828;6.466;2023-05-10T11:31:51;16.90;99.90
20376;DHT22;10347;51.828;6.466;2023-05-10T11:36:56;16.90;99.90
20376;DHT22;10347;51.828;6.466;2023-05-10T11:39:26;16.90;99.90
20376;DHT22;10347;51.828;6.466;2023-05-10T11:41:52;16.80;99.90
20376;DHT22;10347;51.828;6.466;2023-05-10T11:44:18;16.80;99.90
20376;DHT22;10347;51.828;6.466;2023-05-10T11:46:43;16.80;99.90
20376;DHT22;10347;51.828;6.466;2023-05-10T11:49:10;16.90;99.90
20376;DHT22;10347;51.828;6.466;2023-05-10T11:51:36;16.90;99.90
20376;DHT22;10347;51.828;6.466;2023-05-10T11:54:06;16.80;99.90
20376;DHT22;10347;51.828;6.466;2023-05-10T11:56:33;16.80;99.90
20376;DHT22;10347;51.828;6.466;2023-05-10T11:58:58;16.90;99.90
20376;DHT22;10347;51.828;6.466;2023-05-10T12:01:26;16.90;99.90
20376;DHT22;10347;51.828;6.466;2023-05-10T12:03:54;16.90;99.90
20376;DHT22;10347;51.828;6.466;2023-05-10T12:06:20;16.90;99.90
20376;DHT22;10347;51.828;6.466;2023-05-10T12:08:47;16.90;99.90
20376;DHT22;10347;51.828;6.466;2023-05-10T12:11:13;16.90;99.90
20376;DHT22;10347;51.828;6.466;2023-05-10T12:13:42;17.00;99.90
20376;DHT22;10347;51.828;6.466;2023-05-10T12:16:14;17.00;99.90
20376;DHT22;10347;51.828;6.466;2023-05-10T12:18:41;16.90;99.90
20376;DHT22;10347;51.828;6.466;2023-05-10T12:21:10;16.90;99.90
20376;DHT22;10347;51.828;6.466;2023-05-10T12:23:36;17.00;99.90
20376;DHT22;10347;51.828;6.466;2023-05-10T12:26:03;17.00;99.90
20376;DHT22;10347;51.828;6.466;2023-05-10T12:28:32;17.00;99.90
20376;DHT22;10347;51.828;6.466;2023-05-10T12:30:59;17.10;99.90
20376;DHT22;10347;51.828;6.466;2023-05-10T12:33:25;17.10;99.90
20376;DHT22;10347;51.828;6.466;2023-05-10T12:35:54;17.10;99.90
20376;DHT22;10347;51.828;6.466;2023-05-10T12:38:37;17.10;99.90
20376;DHT22;10347;51.828;6.466;2023-05-10T12:41:08;17.20;99.90
20376;DHT22;10347;51.828;6.466;2023-05-10T12:43:35;17.20;99.90
20376;DHT22;10347;51.828;6.466;2023-05-10T12:46:19;17.30;99.90
20376;DHT22;10347;51.828;6.466;2023-05-10T12:48:45;17.30;99.90
20376;DHT22;10347;51.828;6.466;2023-05-10T12:51:12;17.30;99.90
20376;DHT22;10347;51.828;6.466;2023-05-10T12:53:40;17.30;99.90
20376;DHT22;10347;51.828;6.466;2023-05-10T12:56:06;17.40;99.90
20376;DHT22;10347;51.828;6.466;2023-05-10T12:58:32;17.40;99.90
20376;DHT22;10347;51.828;6.466;2023-05-10T13:00:58;17.40;99.90
20376;DHT22;10347;51.828;6.466;2023-05-10T13:03:24;17.40;99.90
20376;DHT22;10347;51.828;6.466;2023-05-10T13:05:50;17.50;99.90
20376;DHT22;10347;51.828;6.466;2023-05-10T13:08:15;17.50;99.90
20376;DHT22;10347;51.828;6.466;2023-05-10T13:10:41;17.50;99.90
20376;DHT22;10347;51.828;6.466;2023-05-10T13:13:06;17.50;99.90
20376;DHT22;10347;51.828;6.466;2023-05-10T13:15:33;17.60;99.90
20376;DHT22;10347;51.828;6.466;2023-05-10T13:17:59;17.50;99.90
20376;DHT22;10347;51.828;6.466;2023-05-10T13:20:25;17.60;99.90
20376;DHT22;10347;51.828;6.466;2023-05-10T13:22:51;17.60;99.90
20376;DHT22;10347;51.828;6.466;2023-05-10T13:25:16;17.60;99.90
20376;DHT22;10347;51.828;6.466;2023-05-10T13:27:42;17.60;99.90
20376;DHT22;10347;51.828;6.466;2023-05-10T13:30:08;17.60;99.90
20376;DHT22;10347;51.828;6.466;2023-05-10T13:32:35;17.70;99.90
20376;DHT22;10347;51.828;6.466;2023-05-10T13:35:01;17.70;99.90
20376;DHT22;10347;51.828;6.466;2023-05-10T13:37:31;17.70;99.90
20376;DHT22;10347;51.828;6.466;2023-05-10T13:39:56;17.70;99.90
20376;DHT22;10347;51.828;6.466;2023-05-10T13:42:22;17.80;99.90
20376;DHT22;10347;51.828;6.466;2023-05-10T13:44:51;17.80;99.90
20376;DHT22;10347;51.828;6.466;2023-05-10T13:47:17;17.90;99.90
20376;DHT22;10347;51.828;6.466;2023-05-10T13:49:42;17.90;99.90
20376;DHT22;10347;51.828;6.466;2023-05-10T13:52:08;18.00;99.90
20376;DHT22;10347;51.828;6.466;2023-05-10T13:54:35;18.10;99.90
20376;DHT22;10347;51.828;6.466;2023-05-10T13:57:02;18.20;99.90
20376;DHT22;10347;51.828;6.466;2023-05-10T13:59:28;18.20;99.90
20376;DHT22;10347;51.828;6.466;2023-05-10T14:01:54;18.30;99.90
20376;DHT22;10347;51.828;6.466;2023-05-10T14:04:20;18.30;99.90
20376;DHT22;10347;51.828;6.466;2023-05-10T14:06:45;18.30;99.90
20376;DHT22;10347;51.828;6.466;2023-05-10T14:09:11;18.40;99.90
20376;DHT22;10347;51.828;6.466;2023-05-10T14:11:37;18.40;99.90
20376;DHT22;10347;51.828;6.466;2023-05-10T14:14:07;18.40;99.90
20376;DHT22;10347;51.828;6.466;2023-05-10T14:16:32;18.40;99.90
20376;DHT22;10347;51.828;6.466;2023-05-10T14:18:58;18.40;99.90
20376;DHT22;10347;51.828;6.466;2023-05-10T14:21:23;18.40;99.90
20376;DHT22;10347;51.828;6.466;2023-05-10T14:23:49;18.40;99.90
20376;DHT22;10347;51.828;6.466;2023-05-10T14:26:15;18.40;99.90
20376;DHT22;10347;51.828;6.466;2023-05-10T14:28:40;18.40;99.90
20376;DHT22;10347;51.828;6.466;2023-05-10T14:31:06;18.40;99.90
20376;DHT22;10347;51.828;6.466;2023-05-10T14:33:32;18.40;99.90
20376;DHT22;10347;51.828;6.466;2023-05-10T14:35:57;18.40;99.90
20376;DHT22;10347;51.828;6.466;2023-05-10T14:38:23;18.40;99.90
20376;DHT22;10347;51.828;6.466;2023-05-10T14:40:49;18.30;99.90
20376;DHT22;10347;51.828;6.466;2023-05-10T14:43:14;18.30;99.90
20376;DHT22;10347;51.828;6.466;2023-05-10T14:45:40;18.30;99.90
20376;DHT22;10347;51.828;6.466;2023-05-10T14:48:05;18.30;99.90
20376;DHT22;10347;51.828;6.466;2023-05-10T14:50:31;18.30;99.90
20376;DHT22;10347;51.828;6.466;2023-05-10T14:52:57;18.30;99.90
20376;DHT22;10347;51.828;6.466;2023-05-10T14:55:24;18.30;99.90
20376;DHT22;10347;51.828;6.466;2023-05-10T14:57:49;18.20;99.90
20376;DHT22;10347;51.828;6.466;2023-05-10T15:00:16;18.20;99.90
20376;DHT22;10347;51.828;6.466;2023-05-10T15:02:41;18.10;99.90
20376;DHT22;10347;51.828;6.466;2023-05-10T15:05:07;18.10;99.90
20376;DHT22;10347;51.828;6.466;2023-05-10T15:07:33;18.10;99.90
20376;DHT22;10347;51.828;6.466;2023-05-10T15:09:58;18.00;99.90
20376;DHT22;10347;51.828;6.466;2023-05-10T15:12:24;17.90;99.90
20376;DHT22;10347;51.828;6.466;2023-05-10T15:14:49;18.00;99.90
20376;DHT22;10347;51.828;6.466;2023-05-10T15:17:15;18.00;99.90
20376;DHT22;10347;51.828;6.466;2023-05-10T15:19:41;18.00;99.90
20376;DHT22;10347;51.828;6.466;2023-05-10T15:22:07;17.90;99.90
20376;DHT22;10347;51.828;6.466;2023-05-10T15:24:33;17.90;99.90
20376;DHT22;10347;51.828;6.466;2023-05-10T15:26:58;17.90;99.90
20376;DHT22;10347;51.828;6.466;2023-05-10T15:29:24;17.90;99.90
20376;DHT22;10347;51.828;6.466;2023-05-10T15:31:50;17.90;99.90
20376;DHT22;10347;51.828;6.466;2023-05-10T15:34:17;17.90;99.90
20376;DHT22;10347;51.828;6.466;2023-05-10T15:36:43;17.90;99.90
20376;DHT22;10347;51.828;6.466;2023-05-10T15:39:09;17.90;99.90
20376;DHT22;10347;51.828;6.466;2023-05-10T15:41:35;17.90;99.90
20376;DHT22;10347;51.828;6.466;2023-05-10T15:44:01;17.90;99.90
20376;DHT22;10347;51.828;6.466;2023-05-10T15:46:27;17.90;99.90
20376;DHT22;10347;51.828;6.466;2023-05-10T15:48:53;17.90;99.90
20376;DHT22;10347;51.828;6.466;2023-05-10T15:51:19;17.80;99.90
20376;DHT22;10347;51.828;6.466;2023-05-10T15:53:45;17.90;99.90
20376;DHT22;10347;51.828;6.466;2023-05-10T15:56:11;17.80;99.90
20376;DHT22;10347;51.828;6.466;2023-05-10T15:58:37;17.70;99.90
20376;DHT22;10347;51.828;6.466;2023-05-10T16:01:03;17.70;99.90
20376;DHT22;10347;51.828;6.466;2023-05-10T16:03:33;17.60;99.90
20376;DHT22;10347;51.828;6.466;2023-05-10T16:05:59;17.60;99.90
20376;DHT22;10347;51.828;6.466;2023-05-10T16:08:25;17.60;99.90